Time;durP1;ratioP1;P1;durP2;ratioP2;P2;SDS_P1;SDS_P2;PMS_P1;PMS_P2;Temp;Humidity;BMP_temperature;BMP_pressure;BME280_temperature;BME280_humidity;BME280_pressure;Samples;Min_cycle;Max_cycle;Signal;HPM_P1;HPM_P2
2021/07/16 00:00:42;;;;;;;1.52;0.85;;;;;;;13.59;100.00;93129.22;2082319;28;20033;-90
2021/07/16 00:01:44;;;;;;;1.30;1.20;;;;;;;13.60;100.00;93121.91;2090735;28;20025;-90
2021/07/16 00:02:45;;;;;;;1.23;0.93;;;;;;;13.63;100.00;93128.34;2082539;28;20101;-89
2021/07/16 00:03:46;;;;;;;3.42;1.23;;;;;;;13.58;100.00;93122.34;2090587;28;20103;-89
2021/07/16 00:04:47;;;;;;;1.38;1.00;;;;;;;13.59;100.00;93125.78;2082080;28;20726;-90
2021/07/16 00:05:48;;;;;;;4.00;1.30;;;;;;;13.57;100.00;93118.16;2085164;28;20043;-87
2021/07/16 00:06:49;;;;;;;1.23;1.13;;;;;;;13.57;100.00;93120.84;2084418;28;20040;-90
2021/07/16 00:07:50;;;;;;;1.85;1.10;;;;;;;13.55;100.00;93117.84;2090650;28;20021;-92
2021/07/16 00:08:51;;;;;;;1.40;1.30;;;;;;;13.51;100.00;93114.50;2085201;28;20052;-90
2021/07/16 00:09:52;;;;;;;1.23;1.13;;;;;;;13.47;100.00;93123.88;2070128;28;20022;-90
2021/07/16 00:10:53;;;;;;;3.30;1.15;;;;;;;13.46;100.00;93127.75;2089549;28;20629;-88
2021/07/16 00:11:54;;;;;;;1.65;1.13;;;;;;;13.50;100.00;93125.69;2097043;28;20032;-88
2021/07/16 00:12:55;;;;;;;1.20;1.20;;;;;;;13.51;100.00;93121.81;2083702;28;20116;-87
2021/07/16 00:13:56;;;;;;;1.75;1.50;;;;;;;13.47;100.00;93115.81;2097494;28;20825;-92
2021/07/16 00:14:57;;;;;;;3.80;1.95;;;;;;;13.48;100.00;93125.41;2093968;28;20016;-89
2021/07/16 00:15:58;;;;;;;1.98;1.30;;;;;;;13.44;100.00;93119.38;2082206;28;20021;-88
2021/07/16 00:17:00;;;;;;;1.00;1.00;;;;;;;13.42;100.00;93122.50;2088781;28;20039;-90
2021/07/16 00:18:01;;;;;;;2.15;1.17;;;;;;;13.46;100.00;93122.38;2095930;28;20020;-89
2021/07/16 00:19:02;;;;;;;1.23;1.13;;;;;;;13.43;100.00;93125.91;2091809;28;20025;-90
2021/07/16 00:20:05;;;;;;;3.60;1.42;;;;;;;13.40;100.00;93124.88;2099954;28;20020;-92
2021/07/16 00:21:06;;;;;;;1.40;1.20;;;;;;;13.39;100.00;93126.06;2089648;28;20041;-91
2021/07/16 00:22:07;;;;;;;3.22;1.40;;;;;;;13.42;100.00;93133.22;2077341;28;20018;-88
2021/07/16 00:23:08;;;;;;;2.05;0.95;;;;;;;13.42;100.00;93130.53;2085942;28;20029;-91
2021/07/16 00:24:10;;;;;;;1.30;1.20;;;;;;;13.39;100.00;93128.75;2082045;28;20025;-92
2021/07/16 00:25:12;;;;;;;1.20;1.10;;;;;;;13.40;100.00;93127.56;2080842;28;20092;-88
2021/07/16 00:26:14;;;;;;;4.72;1.20;;;;;;;13.43;100.00;93126.66;2087610;28;20575;-90
2021/07/16 00:27:15;;;;;;;3.35;1.15;;;;;;;13.42;100.00;93130.53;2074040;28;20045;-90
2021/07/16 00:28:16;;;;;;;1.45;1.35;;;;;;;13.42;100.00;93127.13;2078379;28;20028;-90
2021/07/16 00:29:17;;;;;;;3.83;1.30;;;;;;;13.39;100.00;93125.28;2085835;28;20036;-89
2021/07/16 00:30:18;;;;;;;1.20;1.10;;;;;;;13.43;100.00;93131.28;2094505;28;20021;-90
2021/07/16 00:31:19;;;;;;;2.65;1.08;;;;;;;13.41;100.00;93133.69;2093244;28;20032;-90
2021/07/16 00:32:20;;;;;;;1.38;1.20;;;;;;;13.43;100.00;93131.28;2089775;28;20032;-88
2021/07/16 00:33:21;;;;;;;2.42;1.23;;;;;;;13.49;100.00;93132.25;2081946;28;20033;-87
2021/07/16 00:34:23;;;;;;;3.22;1.35;;;;;;;13.49;100.00;93133.00;2091790;28;20035;-87
2021/07/16 00:35:24;;;;;;;4.80;1.10;;;;;;;13.48;100.00;93133.44;2079842;28;20022;-89
2021/07/16 00:36:25;;;;;;;3.10;1.30;;;;;;;13.46;100.00;93136.56;2090435;28;20025;-91
2021/07/16 00:37:26;;;;;;;2.20;1.10;;;;;;;13.45;100.00;93123.56;2097413;28;20040;-91
2021/07/16 00:38:27;;;;;;;1.00;0.90;;;;;;;13.46;100.00;93127.75;2100658;28;20019;-91
2021/07/16 00:39:28;;;;;;;4.50;1.90;;;;;;;13.44;100.00;93125.50;2085425;28;20923;-89
2021/07/16 00:40:29;;;;;;;1.77;1.20;;;;;;;13.41;100.00;93128.31;2068178;28;20051;-90
2021/07/16 00:41:30;;;;;;;1.17;1.08;;;;;;;13.37;100.00;93127.66;2082024;28;20029;-90
2021/07/16 00:42:31;;;;;;;3.42;1.23;;;;;;;13.36;100.00;93124.22;2076895;28;20075;-89
2021/07/16 00:43:32;;;;;;;1.02;1.02;;;;;;;13.34;100.00;93127.34;2098208;28;20044;-89
2021/07/16 00:44:35;;;;;;;1.88;1.20;;;;;;;13.33;100.00;93127.78;2084880;28;20433;-88
2021/07/16 00:45:35;;;;;;;1.50;1.23;;;;;;;13.28;100.00;93136.38;2082213;28;20108;-92
2021/07/16 00:46:36;;;;;;;1.50;1.40;;;;;;;13.29;100.00;93132.50;2089367;28;20044;-88
2021/07/16 00:47:38;;;;;;;1.42;1.33;;;;;;;13.24;100.00;93128.44;2101391;28;20043;-90
2021/07/16 00:48:39;;;;;;;1.30;1.20;;;;;;;13.21;100.00;93129.25;2090341;28;20029;-89
2021/07/16 00:49:40;;;;;;;1.42;1.15;;;;;;;13.18;100.00;93127.47;2073700;28;20489;-90
2021/07/16 00:50:41;;;;;;;1.60;1.20;;;;;;;13.19;100.00;93128.94;2085957;28;20128;-88
2021/07/16 00:51:42;;;;;;;1.10;1.00;;;;;;;13.19;100.00;93130.88;2098416;28;20024;-88
2021/07/16 00:52:44;;;;;;;1.38;1.15;;;;;;;13.17;100.00;93123.28;2081768;28;20056;-89
2021/07/16 00:53:45;;;;;;;1.20;1.00;;;;;;;13.09;100.00;93119.31;2083316;28;20029;-89
2021/07/16 00:54:46;;;;;;;2.55;1.30;;;;;;;13.04;100.00;93120.59;2081987;28;20032;-91
2021/07/16 00:55:48;;;;;;;2.05;1.27;;;;;;;13.00;100.00;93117.28;2081034;28;20029;-88
2021/07/16 00:56:49;;;;;;;5.13;1.10;;;;;;;12.94;100.00;93120.91;2070851;28;20674;-87
2021/07/16 00:57:51;;;;;;;1.45;0.93;;;;;;;12.94;100.00;93124.34;2081759;28;20028;-88
2021/07/16 00:58:52;;;;;;;0.90;0.90;;;;;;;12.87;100.00;93121.91;2090113;28;20025;-89
2021/07/16 00:59:53;;;;;;;2.63;1.20;;;;;;;12.89;100.00;93119.53;2087677;28;20123;-85
2021/07/16 01:00:54;;;;;;;1.55;1.42;;;;;;;12.85;100.00;93114.25;2086903;28;20379;-88
2021/07/16 01:01:56;;;;;;;3.83;1.30;;;;;;;12.84;100.00;93120.81;2081866;28;20030;-91
2021/07/16 01:02:57;;;;;;;3.95;1.20;;;;;;;12.81;100.00;93116.31;2090049;28;20056;-90
2021/07/16 01:03:59;;;;;;;1.38;1.10;;;;;;;12.80;100.00;93116.75;2081722;28;20025;-91
2021/07/16 01:05:01;;;;;;;1.88;1.30;;;;;;;12.76;100.00;93116.84;2081977;28;20112;-92
2021/07/16 01:06:02;;;;;;;1.38;1.27;;;;;;;12.76;100.00;93116.84;2082027;28;20160;-89
2021/07/16 01:07:04;;;;;;;2.58;1.23;;;;;;;12.74;100.00;93118.47;2090137;28;20033;-92
2021/07/16 01:08:05;;;;;;;3.50;1.33;;;;;;;12.72;100.00;93118.88;2089643;28;20063;-89
2021/07/16 01:09:06;;;;;;;1.30;1.20;;;;;;;12.71;100.00;93124.69;2082023;28;20021;-90
2021/07/16 01:10:09;;;;;;;3.67;1.23;;;;;;;12.66;100.00;93130.59;2090070;28;20086;-87
2021/07/16 01:11:10;;;;;;;2.95;1.30;;;;;;;12.62;100.00;93129.94;2081901;28;20467;-87
2021/07/16 01:12:11;;;;;;;1.23;1.10;;;;;;;12.57;100.00;93129.28;2089973;28;20055;-92
2021/07/16 01:13:15;;;;;;;1.90;1.15;;;;;;;12.55;100.00;93130.88;2089896;28;20032;-92
2021/07/16 01:14:17;;;;;;;1.33;1.23;;;;;;;12.51;100.00;93133.69;2083284;28;20036;-90
2021/07/16 01:15:21;;;;;;;3.03;1.30;;;;;;;12.60;100.00;93127.69;2097541;28;20020;-88
2021/07/16 01:16:22;;;;;;;1.23;1.17;;;;;;;12.54;100.00;93132.81;2089690;28;20103;-90
2021/07/16 01:17:23;;;;;;;2.83;1.30;;;;;;;12.55;100.00;93138.91;2074081;28;20021;-89
2021/07/16 01:18:24;;;;;;;3.15;1.23;;;;;;;12.56;100.00;93138.50;2082822;28;20390;-88
2021/07/16 01:19:50;;;;;;;1.15;1.13;;;;;;;12.50;100.00;93140.19;2081634;28;20024;-93
2021/07/16 01:20:51;;;;;;;1.33;1.23;;;;;;;12.48;100.00;93136.47;2093627;28;20021;-90
2021/07/16 01:21:55;;;;;;;6.07;1.40;;;;;;;12.44;100.00;93128.50;2101459;28;20070;-87
2021/07/16 01:22:58;;;;;;;1.42;1.33;;;;;;;12.42;100.00;93132.78;2091546;28;20467;-92
2021/07/16 01:23:59;;;;;;;3.13;1.33;;;;;;;12.40;100.00;93132.47;2079139;28;20072;-91
2021/07/16 01:25:03;;;;;;;1.50;1.30;;;;;;;12.41;100.00;93131.28;2083023;28;20478;-88
2021/07/16 01:26:06;;;;;;;2.85;1.10;;;;;;;12.40;100.00;93129.78;2095685;28;20024;-93
2021/07/16 01:27:08;;;;;;;0.90;0.90;;;;;;;12.33;100.00;93130.72;2088100;28;20021;-90
2021/07/16 01:28:09;;;;;;;1.35;1.25;;;;;;;12.31;100.00;93125.06;2099590;28;20036;-92
2021/07/16 01:29:10;;;;;;;4.32;1.50;;;;;;;12.26;100.00;93120.97;2084979;28;20556;-89
2021/07/16 01:30:13;;;;;;;1.90;1.50;;;;;;;12.23;100.00;93121.81;2084886;28;20033;-91
2021/07/16 01:31:14;;;;;;;1.80;1.25;;;;;;;12.22;100.00;93117.66;2094566;28;20074;-89
2021/07/16 01:32:17;;;;;;;1.90;1.10;;;;;;;12.21;100.00;93118.81;2085117;28;20021;-90
2021/07/16 01:33:19;;;;;;;2.35;1.20;;;;;;;12.19;100.00;93115.06;2090858;28;20796;-91
2021/07/16 01:34:20;;;;;;;4.53;2.83;;;;;;;12.21;100.00;93120.75;2084417;28;20107;-93
2021/07/16 01:35:23;;;;;;;2.10;1.40;;;;;;;12.25;100.00;93124.09;2081807;28;20363;-89
2021/07/16 01:36:24;;;;;;;2.90;1.40;;;;;;;12.22;100.00;93120.31;2081051;28;20098;-89
2021/07/16 01:37:25;;;;;;;1.35;1.27;;;;;;;12.21;100.00;93121.50;2083078;28;20029;-88
2021/07/16 01:38:27;;;;;;;1.38;1.20;;;;;;;12.19;100.00;93120.41;2085011;28;20080;-90
2021/07/16 01:39:29;;;;;;;2.25;1.40;;;;;;;12.09;100.00;93119.53;2079457;28;20030;-90
2021/07/16 01:40:35;;;;;;;4.80;1.38;;;;;;;12.07;100.00;93127.22;2101095;28;20027;-88
2021/07/16 01:41:36;;;;;;;1.92;1.60;;;;;;;12.07;100.00;93117.28;2103907;28;20050;-88
2021/07/16 01:42:40;;;;;;;2.08;1.25;;;;;;;12.06;100.00;93117.69;2095123;28;20119;-90
2021/07/16 01:43:41;;;;;;;3.28;1.55;;;;;;;12.06;100.00;93123.81;2079629;28;20312;-88
2021/07/16 01:44:43;;;;;;;1.50;1.40;;;;;;;12.04;100.00;93126.19;2087645;28;20029;-88
2021/07/16 01:45:44;;;;;;;3.20;1.27;;;;;;;12.06;100.00;93118.44;2091158;28;20752;-87
2021/07/16 01:46:45;;;;;;;1.50;1.40;;;;;;;11.98;100.00;93119.81;2087514;28;20036;-90
2021/07/16 01:47:57;;;;;;;1.20;1.10;;;;;;;11.95;100.00;93122.63;2096196;28;20061;-90
2021/07/16 01:48:59;;;;;;;1.52;1.42;;;;;;;11.99;100.00;93117.91;2091134;28;20417;-89
2021/07/16 01:50:05;;;;;;;1.10;1.10;;;;;;;11.96;100.00;93122.19;2089810;28;20029;-92
2021/07/16 01:51:06;;;;;;;1.73;1.20;;;;;;;11.92;100.00;93118.84;2093208;28;20052;-90
2021/07/16 01:52:07;;;;;;;2.45;1.30;;;;;;;11.91;100.00;93111.25;2086308;28;20037;-90
2021/07/16 01:53:10;;;;;;;1.50;1.40;;;;;;;11.86;100.00;93115.19;2086137;28;20029;-92
2021/07/16 01:54:11;;;;;;;2.53;1.27;;;;;;;11.84;100.00;93120.19;2081853;28;20386;-88
2021/07/16 01:55:13;;;;;;;1.45;1.35;;;;;;;11.80;100.00;93109.56;2081417;28;20029;-88
2021/07/16 01:56:17;;;;;;;1.38;1.30;;;;;;;11.85;100.00;93113.66;2089608;28;20033;-93
2021/07/16 01:57:18;;;;;;;4.63;1.73;;;;;;;11.83;100.00;93113.34;2090166;28;20028;-89
2021/07/16 01:58:18;;;;;;;4.47;1.70;;;;;;;11.84;100.00;93118.28;2089667;28;20980;-91
2021/07/16 01:59:19;;;;;;;2.05;1.20;;;;;;;11.83;100.00;93119.44;2089569;28;20071;-88
2021/07/16 02:00:33;;;;;;;1.60;1.50;;;;;;;11.78;100.00;93114.59;2089737;28;20100;-91
2021/07/16 02:01:33;;;;;;;3.40;1.65;;;;;;;11.82;100.00;93117.97;2082969;28;20075;-88
2021/07/16 02:02:34;;;;;;;1.60;1.50;;;;;;;11.85;100.00;93113.66;2073322;28;20025;-90
2021/07/16 02:03:35;;;;;;;1.98;1.42;;;;;;;11.88;100.00;93114.75;2081108;28;20084;-89
2021/07/16 02:06:19;;;;;;;;;;;;;;;11.86;100.00;93120.53;2148115;27;20465;-84
2021/07/16 02:07:20;;;;;;;2.15;1.55;;;;;;;11.81;100.00;93121.03;2121964;27;19911;-84
2021/07/16 02:08:23;;;;;;;3.90;1.63;;;;;;;11.85;100.00;93121.69;2103979;28;20471;-83
2021/07/16 02:09:24;;;;;;;2.55;2.15;;;;;;;11.89;100.00;93116.25;2113030;28;20507;-83
2021/07/16 02:10:26;;;;;;;4.05;2.33;;;;;;;11.87;100.00;93116.69;2113115;28;20118;-83
2021/07/16 02:11:27;;;;;;;3.80;2.90;;;;;;;11.90;100.00;93120.47;2113002;28;20039;-84
2021/07/16 02:12:28;;;;;;;3.85;2.75;;;;;;;11.90;100.00;93121.22;2115619;27;20020;-84
2021/07/16 02:13:29;;;;;;;5.80;3.10;;;;;;;11.93;100.00;93114.22;2112735;28;20026;-84
2021/07/16 02:14:30;;;;;;;6.65;3.35;;;;;;;11.95;100.00;93118.00;2122388;27;20015;-85
2021/07/16 02:15:35;;;;;;;7.80;3.38;;;;;;;11.95;100.00;93118.00;2112645;28;20028;-83
2021/07/16 02:16:36;;;;;;;3.47;3.28;;;;;;;11.95;100.00;93122.63;2111568;28;20162;-84
2021/07/16 02:17:37;;;;;;;6.93;3.30;;;;;;;12.01;100.00;93121.66;2111553;28;20023;-82
2021/07/16 02:18:38;;;;;;;6.70;3.95;;;;;;;11.99;100.00;93126.69;2112623;28;20034;-84
2021/07/16 02:19:39;;;;;;;3.72;3.45;;;;;;;12.02;100.00;93112.44;2112815;27;20102;-83
2021/07/16 02:20:41;;;;;;;5.82;3.28;;;;;;;12.02;100.00;93122.41;2113204;28;20023;-83
2021/07/16 02:21:42;;;;;;;4.03;3.72;;;;;;;12.07;100.00;93119.97;2122998;27;20031;-83
2021/07/16 02:22:43;;;;;;;10.23;3.70;;;;;;;12.05;100.00;93122.31;2121764;27;20110;-83
2021/07/16 02:23:44;;;;;;;6.85;3.90;;;;;;;12.05;100.00;93126.91;2121048;28;20622;-82
2021/07/16 02:24:45;;;;;;;4.75;4.10;;;;;;;12.04;100.00;93122.75;2128314;27;20026;-84
2021/07/16 02:25:46;;;;;;;3.83;3.50;;;;;;;12.02;100.00;93125.84;2117484;28;20422;-83
2021/07/16 02:26:47;;;;;;;4.65;4.10;;;;;;;12.00;100.00;93122.84;2106695;28;20035;-84
2021/07/16 02:27:51;;;;;;;4.10;3.75;;;;;;;11.99;100.00;93125.94;2104451;28;20115;-83
2021/07/16 02:28:52;;;;;;;5.38;3.90;;;;;;;11.98;100.00;93129.78;2116411;28;20114;-84
2021/07/16 02:29:53;;;;;;;3.70;3.38;;;;;;;12.01;100.00;93135.06;2106814;27;20032;-83
2021/07/16 02:30:55;;;;;;;3.92;3.53;;;;;;;11.99;100.00;93125.94;2117545;27;20028;-84
2021/07/16 02:31:56;;;;;;;4.00;3.58;;;;;;;11.93;100.00;93119.59;2120120;27;20031;-84
2021/07/16 02:32:58;;;;;;;3.60;3.30;;;;;;;11.92;100.00;93124.19;2122824;27;20027;-84
2021/07/16 02:34:00;;;;;;;3.35;3.05;;;;;;;11.91;100.00;93121.94;2116956;27;20499;-84
2021/07/16 02:35:01;;;;;;;4.40;4.00;;;;;;;11.96;100.00;93116.06;2116966;27;20062;-83
2021/07/16 02:36:04;;;;;;;4.70;4.30;;;;;;;11.94;100.00;93121.88;2106402;28;20032;-83
2021/07/16 02:37:05;;;;;;;4.78;4.38;;;;;;;11.98;100.00;93119.06;2121021;27;20035;-83
2021/07/16 02:38:06;;;;;;;4.43;4.03;;;;;;;12.02;100.00;93117.03;2114316;28;20024;-84
2021/07/16 02:39:07;;;;;;;4.93;4.20;;;;;;;12.03;100.00;93122.00;2111692;28;20500;-83
2021/07/16 02:40:10;;;;;;;5.28;4.78;;;;;;;12.06;100.00;93123.81;2113199;28;20019;-83
2021/07/16 02:41:11;;;;;;;5.28;4.78;;;;;;;12.24;100.00;93117.97;2125058;27;20030;-83
2021/07/16 02:42:12;;;;;;;6.25;5.30;;;;;;;12.18;100.00;93118.91;2112932;28;20466;-84
2021/07/16 02:43:14;;;;;;;5.70;4.93;;;;;;;12.23;100.00;93124.50;2112286;28;20024;-84
2021/07/16 02:44:15;;;;;;;6.00;4.65;;;;;;;12.26;100.00;93128.28;2116771;27;20119;-84
2021/07/16 02:45:20;;;;;;;5.82;5.13;;;;;;;12.23;100.00;93121.81;2125204;27;20635;-83
2021/07/16 02:46:21;;;;;;;5.35;4.88;;;;;;;12.23;100.00;93129.13;2113828;27;20031;-82
2021/07/16 02:47:22;;;;;;;5.43;4.93;;;;;;;12.27;100.00;93127.09;2111285;28;20789;-82
2021/07/16 02:48:23;;;;;;;5.63;5.10;;;;;;;12.29;100.00;93127.41;2112415;28;20020;-82
2021/07/16 02:49:24;;;;;;;6.20;5.00;;;;;;;12.31;100.00;93130.41;2106321;28;20507;-83
2021/07/16 02:50:27;;;;;;;6.03;5.38;;;;;;;12.26;100.00;93133.63;2113957;27;20034;-84
2021/07/16 02:51:28;;;;;;;5.55;5.07;;;;;;;12.29;100.00;93130.84;2107216;28;20489;-83
2021/07/16 02:52:29;;;;;;;6.40;5.47;;;;;;;12.27;100.00;93132.44;2120756;27;20034;-83
2021/07/16 02:53:30;;;;;;;6.00;5.50;;;;;;;12.28;100.00;93132.00;2120013;28;20022;-85
2021/07/16 02:54:31;;;;;;;6.68;6.07;;;;;;;12.35;100.00;93139.13;2104187;28;20031;-83
2021/07/16 02:55:33;;;;;;;5.97;5.47;;;;;;;12.35;100.00;93128.41;2112633;27;20381;-84
2021/07/16 02:56:34;;;;;;;6.30;5.80;;;;;;;12.45;100.00;93134.63;2112389;28;20030;-85
2021/07/16 02:57:34;;;;;;;6.40;5.80;;;;;;;12.41;100.00;93139.34;2103910;28;20795;-83
2021/07/16 02:58:35;;;;;;;6.63;6.03;;;;;;;12.46;100.00;93134.19;2112438;27;20024;-83
2021/07/16 02:59:36;;;;;;;6.50;5.78;;;;;;;12.45;100.00;93130.00;2118882;28;20023;-83
2021/07/16 03:00:38;;;;;;;6.43;5.82;;;;;;;12.46;100.00;93136.13;2099961;28;20424;-84
2021/07/16 03:02:03;;;;;;;6.68;6.10;;;;;;;12.46;100.00;93136.88;2108190;28;20081;-84
2021/07/16 03:03:05;;;;;;;6.22;5.68;;;;;;;12.39;100.00;93141.69;2107201;28;20115;-82
2021/07/16 03:04:06;;;;;;;6.15;5.55;;;;;;;12.41;100.00;93137.41;2095396;28;20028;-84
2021/07/16 03:05:12;;;;;;;6.97;5.70;;;;;;;12.42;100.00;93138.91;2107093;28;20028;-83
2021/07/16 03:06:13;;;;;;;6.32;5.82;;;;;;;12.42;100.00;93138.16;2110156;27;20115;-84
2021/07/16 03:07:14;;;;;;;6.13;5.53;;;;;;;12.39;100.00;93142.44;2114070;28;20020;-84
2021/07/16 03:08:15;;;;;;;5.47;4.97;;;;;;;12.41;100.00;93136.66;2115470;28;20027;-83
2021/07/16 03:09:16;;;;;;;7.97;5.22;;;;;;;12.41;100.00;93131.28;2103715;28;20233;-85
2021/07/16 03:10:20;;;;;;;5.85;5.35;;;;;;;12.40;100.00;93133.22;2112427;28;20035;-84
2021/07/16 03:11:21;;;;;;;6.45;5.85;;;;;;;12.40;100.00;93135.16;2096413;28;20112;-85
2021/07/16 03:12:22;;;;;;;6.15;5.65;;;;;;;12.46;100.00;93139.56;2112312;28;20031;-83
2021/07/16 03:13:23;;;;;;;6.53;5.97;;;;;;;12.44;100.00;93133.88;2119593;28;20141;-82
2021/07/16 03:14:24;;;;;;;6.93;5.45;;;;;;;12.45;100.00;93134.63;2116204;28;20369;-84
2021/07/16 03:15:26;;;;;;;6.15;5.65;;;;;;;12.43;100.00;93134.31;2115394;27;20019;-84
2021/07/16 03:16:27;;;;;;;6.95;6.00;;;;;;;12.42;100.00;93127.44;2117660;28;20069;-84
2021/07/16 03:17:28;;;;;;;8.77;6.15;;;;;;;12.47;100.00;93133.03;2107732;28;20576;-84
2021/07/16 03:18:29;;;;;;;5.88;5.38;;;;;;;12.46;100.00;93139.56;2098303;28;20023;-83
2021/07/16 03:19:30;;;;;;;5.32;4.93;;;;;;;12.42;100.00;93132.78;2089841;28;20834;-84
2021/07/16 03:20:34;;;;;;;6.13;5.53;;;;;;;12.42;100.00;93128.19;2098044;28;20086;-84
2021/07/16 03:21:35;;;;;;;6.05;5.45;;;;;;;12.40;100.00;93135.91;2099338;28;20025;-84
2021/07/16 03:22:36;;;;;;;5.47;5.03;;;;;;;12.37;100.00;93134.06;2106762;28;20880;-83
2021/07/16 03:23:37;;;;;;;5.65;5.15;;;;;;;12.41;100.00;93144.69;2106676;28;20031;-84
2021/07/16 03:24:39;;;;;;;5.65;4.85;;;;;;;12.38;100.00;93143.63;2107695;28;20028;-84
2021/07/16 03:25:40;;;;;;;6.10;5.60;;;;;;;12.43;100.00;93145.03;2099476;28;20114;-83
2021/07/16 03:26:41;;;;;;;5.93;5.43;;;;;;;12.41;100.00;93144.69;2098253;28;20028;-83
2021/07/16 03:27:43;;;;;;;5.97;5.47;;;;;;;12.41;100.00;93145.44;2098060;28;20028;-82
2021/07/16 03:28:45;;;;;;;10.77;5.55;;;;;;;12.38;100.00;93142.84;2090240;28;20424;-84
2021/07/16 03:29:46;;;;;;;5.90;5.40;;;;;;;12.37;100.00;93144.78;2090048;28;20029;-84
2021/07/16 03:30:47;;;;;;;6.28;5.20;;;;;;;12.45;100.00;93145.34;2098336;28;20567;-84
2021/07/16 03:31:48;;;;;;;6.18;5.57;;;;;;;12.45;100.00;93154.13;2098197;28;20077;-83
2021/07/16 03:32:49;;;;;;;5.18;4.75;;;;;;;12.42;100.00;93151.56;2101899;28;20668;-83
2021/07/16 03:33:50;;;;;;;5.15;4.75;;;;;;;12.39;100.00;93150.50;2106838;28;20103;-86
2021/07/16 03:34:51;;;;;;;5.60;5.05;;;;;;;12.44;100.00;93146.53;2099056;28;20076;-85
2021/07/16 03:35:53;;;;;;;5.90;5.40;;;;;;;12.45;100.00;93150.72;2099339;28;20070;-85
2021/07/16 03:36:54;;;;;;;4.72;4.32;;;;;;;12.49;100.00;93149.44;2089948;28;20657;-84
2021/07/16 03:37:55;;;;;;;4.80;4.38;;;;;;;12.48;100.00;93145.25;2101378;28;20032;-84
2021/07/16 03:38:56;;;;;;;6.35;5.20;;;;;;;12.42;100.00;93154.97;2092393;28;20035;-83
2021/07/16 03:39:57;;;;;;;5.55;4.57;;;;;;;12.48;100.00;93152.53;2102610;28;20035;-84
2021/07/16 03:41:00;;;;;;;5.00;4.60;;;;;;;12.54;100.00;93150.81;2105069;28;20028;-82
2021/07/16 03:42:01;;;;;;;5.55;5.05;;;;;;;12.56;100.00;93151.16;2099200;28;20119;-83
2021/07/16 03:43:02;;;;;;;5.35;4.93;;;;;;;12.54;100.00;93151.56;2110336;28;20020;-84
2021/07/16 03:44:04;;;;;;;4.88;4.57;;;;;;;12.55;100.00;93142.34;2107826;28;20071;-84
2021/07/16 03:45:07;;;;;;;5.28;4.85;;;;;;;12.49;100.00;93140.63;2108317;28;20464;-84
2021/07/16 03:46:08;;;;;;;5.95;5.40;;;;;;;12.50;100.00;93139.44;2099262;28;20568;-85
2021/07/16 03:47:14;;;;;;;5.30;4.80;;;;;;;12.54;100.00;93143.53;2104422;28;20027;-85
2021/07/16 03:48:15;;;;;;;5.32;4.70;;;;;;;12.54;100.00;93145.47;2109507;28;20027;-83
2021/07/16 03:49:16;;;;;;;5.50;5.07;;;;;;;12.56;100.00;93149.25;2098043;28;20063;-83
2021/07/16 03:50:20;;;;;;;5.43;4.97;;;;;;;12.54;100.00;93151.56;2098186;28;20031;-83
2021/07/16 03:51:21;;;;;;;4.45;4.15;;;;;;;12.68;100.00;93147.72;2098587;28;20116;-83
2021/07/16 03:52:22;;;;;;;5.30;4.80;;;;;;;12.63;100.00;93152.88;2102058;28;20023;-83
2021/07/16 03:53:23;;;;;;;4.95;4.60;;;;;;;12.62;100.00;93144.09;2101732;28;20020;-85
2021/07/16 03:54:24;;;;;;;5.13;4.72;;;;;;;12.60;100.00;93152.56;2090804;28;20029;-83
2021/07/16 03:55:25;;;;;;;5.15;4.75;;;;;;;12.57;100.00;93150.72;2098029;28;20028;-82
2021/07/16 03:56:26;;;;;;;5.68;4.53;;;;;;;12.59;100.00;93148.38;2100823;28;20423;-83
2021/07/16 03:57:27;;;;;;;4.75;4.45;;;;;;;12.56;100.00;93141.19;2106446;28;20015;-82
2021/07/16 03:58:28;;;;;;;6.95;4.65;;;;;;;12.60;100.00;93144.53;2101761;28;20046;-84
2021/07/16 03:59:29;;;;;;;4.90;4.50;;;;;;;12.60;100.00;93139.16;2092300;28;20021;-82
2021/07/16 04:00:30;;;;;;;5.88;4.55;;;;;;;12.64;100.00;93138.28;2102621;28;20020;-82
2021/07/16 04:01:31;;;;;;;4.55;4.25;;;;;;;12.61;100.00;93137.22;2097932;28;20054;-83
2021/07/16 04:02:32;;;;;;;4.93;4.40;;;;;;;12.62;100.00;93135.28;2086347;28;20444;-85
2021/07/16 04:03:33;;;;;;;4.60;4.15;;;;;;;12.60;100.00;93135.72;2093319;28;20021;-84
2021/07/16 04:04:34;;;;;;;4.50;4.20;;;;;;;12.58;100.00;93135.38;2088325;28;20025;-84
2021/07/16 04:05:37;;;;;;;4.32;4.00;;;;;;;12.59;100.00;93139.56;2097745;28;20107;-83
2021/07/16 04:06:38;;;;;;;5.45;4.95;;;;;;;12.57;100.00;93137.31;2098156;28;20113;-83
2021/07/16 04:07:45;;;;;;;4.57;4.28;;;;;;;12.62;100.00;93129.94;2098355;28;20078;-83
2021/07/16 04:08:47;;;;;;;4.60;4.20;;;;;;;12.60;100.00;93136.47;2106749;28;20086;-84
2021/07/16 04:09:48;;;;;;;5.65;4.38;;;;;;;12.58;100.00;93133.47;2096310;28;20028;-83
2021/07/16 04:10:49;;;;;;;4.75;3.80;;;;;;;12.61;100.00;93139.91;2090176;28;20021;-84
2021/07/16 04:11:50;;;;;;;5.97;4.50;;;;;;;12.71;100.00;93146.13;2104831;28;20023;-84
2021/07/16 04:12:53;;;;;;;5.63;4.80;;;;;;;12.66;100.00;93142.06;2109747;28;20022;-85
2021/07/16 04:13:53;;;;;;;4.20;3.90;;;;;;;12.63;100.00;93142.91;2108025;28;20031;-83
2021/07/16 04:14:55;;;;;;;4.78;4.35;;;;;;;12.69;100.00;93143.13;2105352;28;20047;-85
2021/07/16 04:15:56;;;;;;;5.55;4.50;;;;;;;12.67;100.00;93146.22;2099406;28;20500;-82
2021/07/16 04:16:57;;;;;;;5.25;4.47;;;;;;;12.68;100.00;93144.28;2090454;28;20017;-82
2021/07/16 04:18:01;;;;;;;4.25;3.85;;;;;;;12.69;100.00;93135.09;2094132;28;20546;-83
2021/07/16 04:19:02;;;;;;;6.13;4.30;;;;;;;12.68;100.00;93146.97;2090583;28;20021;-82
2021/07/16 04:20:04;;;;;;;5.13;4.63;;;;;;;12.78;100.00;93146.69;2105350;28;20027;-83
2021/07/16 04:21:05;;;;;;;4.75;4.45;;;;;;;12.79;100.00;93153.53;2116237;27;20023;-84
2021/07/16 04:22:07;;;;;;;5.00;4.60;;;;;;;12.76;100.00;93150.97;2106039;28;20024;-83
2021/07/16 04:23:08;;;;;;;4.85;4.47;;;;;;;12.79;100.00;93155.47;2089918;28;20062;-84
2021/07/16 04:24:09;;;;;;;4.97;4.57;;;;;;;12.82;100.00;93154.63;2097886;28;20020;-84
2021/07/16 04:25:16;;;;;;;4.85;4.47;;;;;;;12.78;100.00;93154.72;2109271;28;20023;-82
2021/07/16 04:26:17;;;;;;;5.22;4.72;;;;;;;12.85;100.00;93154.50;2118703;27;20449;-83
2021/07/16 04:27:19;;;;;;;5.22;4.82;;;;;;;12.85;100.00;93159.13;2114616;28;20027;-83
2021/07/16 04:28:20;;;;;;;5.18;4.78;;;;;;;12.80;100.00;93163.09;2106146;28;20420;-83
2021/07/16 04:29:21;;;;;;;5.50;4.22;;;;;;;12.82;100.00;93160.00;2105061;28;20024;-83
2021/07/16 04:30:23;;;;;;;4.75;4.35;;;;;;;12.77;100.00;93163.19;2106616;28;20149;-83
2021/07/16 04:31:24;;;;;;;5.07;4.57;;;;;;;12.82;100.00;93160.75;2109410;28;20020;-84
2021/07/16 04:32:25;;;;;;;6.07;4.43;;;;;;;12.87;100.00;93158.72;2111513;27;20030;-83
2021/07/16 04:33:26;;;;;;;6.97;4.70;;;;;;;12.85;100.00;93159.13;2106724;28;20024;-84
2021/07/16 04:34:31;;;;;;;7.28;4.65;;;;;;;12.87;100.00;93162.13;2111484;28;20030;-83
2021/07/16 04:35:33;;;;;;;4.70;4.30;;;;;;;12.91;100.00;93164.72;2113020;27;20677;-83
2021/07/16 04:36:34;;;;;;;4.82;4.53;;;;;;;12.87;100.00;93161.41;2099441;28;20028;-84
2021/07/16 04:37:36;;;;;;;5.22;4.82;;;;;;;12.86;100.00;93160.63;2112903;28;20510;-82
2021/07/16 04:38:37;;;;;;;4.82;4.43;;;;;;;12.84;100.00;93163.00;2109526;28;20028;-81
2021/07/16 04:39:38;;;;;;;4.63;4.07;;;;;;;12.79;100.00;93161.59;2106124;28;20660;-85
2021/07/16 04:40:39;;;;;;;4.90;4.20;;;;;;;12.77;100.00;93168.56;2109200;28;20106;-85
2021/07/16 04:41:40;;;;;;;4.70;4.15;;;;;;;12.77;100.00;93166.63;2106927;28;20027;-82
2021/07/16 04:42:41;;;;;;;4.95;4.55;;;;;;;12.75;100.00;93166.31;2105063;28;20494;-83
2021/07/16 04:43:42;;;;;;;5.13;4.72;;;;;;;12.77;100.00;93158.56;2106517;28;20028;-84
2021/07/16 04:44:43;;;;;;;10.48;5.28;;;;;;;12.80;100.00;93165.78;2107521;28;20031;-83
2021/07/16 04:45:44;;;;;;;4.90;4.50;;;;;;;12.78;100.00;93172.75;2089311;28;20043;-84
2021/07/16 04:46:45;;;;;;;5.57;4.05;;;;;;;12.80;100.00;93173.06;2098237;28;20454;-85
2021/07/16 04:47:46;;;;;;;5.95;4.22;;;;;;;12.83;100.00;93175.66;2105556;28;20039;-82
2021/07/16 04:48:47;;;;;;;5.00;4.43;;;;;;;12.79;100.00;93174.25;2097569;28;20112;-83